This is the latest recevied weather packets stored in our database for station/object EA4IAJ-12. If no packets are shown the sender has not sent any weather packets the latest 10 day(s).
| Time | Temp. | Humidity | Pressure | Rain* | Wind** | Luminosity | Snow |
|---|---|---|---|---|---|---|---|
| 1787626285 | 17.78° C | 100% | 998.7 hPa | - | - | - | - |
| 1787625384 | 17.78° C | 100% | 999.2 hPa | - | - | - | - |
| 1787624483 | 17.78° C | 100% | 999.6 hPa | - | - | - | - |
| 1787623583 | 18.33° C | 100% | 1000.1 hPa | - | - | - | - |
| 1787622930 | 18.33° C | 100% | 1000.1 hPa | - | - | - | - |
| 1787622682 | 18.33° C | 100% | 1000.1 hPa | - | - | - | - |
| 1787621784 | 18.89° C | 100% | 1001 hPa | - | - | - | - |
| 1787620879 | 18.89° C | 100% | 1001.8 hPa | - | - | - | - |
| 1787619978 | 19.44° C | 100% | 1002.7 hPa | - | - | - | - |
| 1787619078 | 19.44° C | 100% | 1003.2 hPa | - | - | - | - |
| 1787618219 | 19.44° C | 100% | 1004 hPa | - | - | - | - |
| 1787618178 | 19.44° C | 100% | 1004 hPa | - | - | - | - |
| 1787617277 | 20° C | 100% | 1004.7 hPa | - | - | - | - |
| 1787616376 | 20° C | 98% | 1004.4 hPa | - | - | - | - |
| 1787615476 | 20° C | 95% | 1004.1 hPa | - | - | - | - |
| 1787614575 | 20° C | 92% | 1004.6 hPa | - | - | - | - |
| 1787613675 | 20° C | 90% | 1004.9 hPa | - | - | - | - |
| 1787612774 | 20.56° C | 87% | 1005.7 hPa | - | - | - | - |
| 1787611873 | 20.56° C | 84% | 1006.5 hPa | - | - | - | - |
| 1787610973 | 21.11° C | 81% | 1006.5 hPa | - | - | - | - |
| 1787610072 | 20.56° C | 78% | 1005.8 hPa | - | - | - | - |
| 1787609172 | 21.11° C | 75% | 1005.8 hPa | - | - | - | - |
| 1787608284 | 21.11° C | 71% | 1005.3 hPa | - | - | - | - |
| 1787607383 | 21.11° C | 68% | 1005.1 hPa | - | - | - | - |
| 1787606483 | 21.11° C | 64% | 1004.6 hPa | - | - | - | - |
* Rain since midnight (hover to see other rain measurements)
** Current wind speed in m/s (hover to see current wind gust speed)